createdAt,value
2022-10-19T00:01:06.397Z,7.36
2022-10-19T00:03:35.785Z,7.23
2022-10-19T00:06:14.587Z,7.21
2022-10-19T00:08:43.140Z,7.17
2022-10-19T00:11:11.273Z,7.05
2022-10-19T00:13:41.033Z,6.94
2022-10-19T00:16:11.561Z,6.92
2022-10-19T00:18:40.149Z,6.70
2022-10-19T00:21:09.231Z,6.66
2022-10-19T00:23:37.555Z,6.73
2022-10-19T00:26:05.634Z,6.77
2022-10-19T00:28:33.901Z,6.74
2022-10-19T00:31:05.830Z,6.75
2022-10-19T00:33:33.958Z,6.71
2022-10-19T00:36:02.378Z,6.59
2022-10-19T00:38:30.731Z,6.52
2022-10-19T00:40:58.731Z,6.45
2022-10-19T00:43:31.159Z,6.44
2022-10-19T00:45:58.902Z,6.44
2022-10-19T00:48:32.349Z,6.40
2022-10-19T00:51:01.001Z,6.38
2022-10-19T00:53:31.494Z,6.34
2022-10-19T00:56:06.321Z,6.34
2022-10-19T00:58:35.054Z,6.39
2022-10-19T01:01:06.637Z,6.44
2022-10-19T01:03:35.928Z,6.47
2022-10-19T01:06:04.665Z,6.42
2022-10-19T01:08:32.676Z,6.41
2022-10-19T01:11:14.229Z,6.18
2022-10-19T01:13:51.490Z,6.16
2022-10-19T01:16:28.241Z,6.18
2022-10-19T01:19:06.781Z,6.10
2022-10-19T01:21:40.493Z,5.98
2022-10-19T01:24:35.825Z,5.77
2022-10-19T01:27:35.325Z,5.61
2022-10-19T01:30:09.452Z,5.58
2022-10-19T01:32:47.623Z,5.56
2022-10-19T01:35:26.501Z,5.58
2022-10-19T01:38:05.857Z,5.51
2022-10-19T01:40:42.630Z,5.43
2022-10-19T01:43:16.280Z,5.40
2022-10-19T01:45:51.186Z,5.46
2022-10-19T01:48:23.330Z,5.56
2022-10-19T01:50:56.849Z,5.65
2022-10-19T01:53:27.804Z,5.74
2022-10-19T01:55:59.017Z,5.76
2022-10-19T01:58:28.668Z,5.76
2022-10-19T02:01:01.684Z,5.69
2022-10-19T02:03:30.259Z,5.66
2022-10-19T02:05:59.161Z,5.64
2022-10-19T02:08:31.613Z,5.69
2022-10-19T02:11:01.429Z,5.70
2022-10-19T02:13:30.341Z,5.73
2022-10-19T02:16:02.589Z,5.75
2022-10-19T02:18:34.230Z,5.77
2022-10-19T02:21:03.132Z,5.70
2022-10-19T02:23:31.471Z,5.69
2022-10-19T02:26:00.164Z,5.71
2022-10-19T02:28:29.284Z,5.71
2022-10-19T02:30:57.698Z,5.71
2022-10-19T02:33:27.917Z,5.72
2022-10-19T02:35:56.288Z,5.72
2022-10-19T02:38:25.742Z,5.69
2022-10-19T02:41:03.254Z,5.58
2022-10-19T02:43:35.100Z,5.39
2022-10-19T02:46:07.826Z,5.24
2022-10-19T02:48:39.966Z,5.10
2022-10-19T02:51:09.904Z,5.00
2022-10-19T02:53:37.606Z,4.95
2022-10-19T02:56:05.960Z,4.82
2022-10-19T02:58:33.680Z,4.71
2022-10-19T03:01:02.130Z,4.72
2022-10-19T03:03:29.885Z,4.61
2022-10-19T03:06:08.896Z,4.53
2022-10-19T03:08:36.601Z,4.53
2022-10-19T03:11:04.359Z,4.51
2022-10-19T03:13:32.209Z,4.55
2022-10-19T03:16:06.241Z,4.63
2022-10-19T03:18:33.961Z,4.65
2022-10-19T03:21:07.584Z,4.67
2022-10-19T03:23:35.759Z,4.59
2022-10-19T03:26:04.908Z,4.63
2022-10-19T03:28:34.967Z,4.68
2022-10-19T03:31:03.330Z,4.70
2022-10-19T03:33:31.077Z,4.68
2022-10-19T03:36:17.982Z,4.68
2022-10-19T03:38:46.080Z,4.68
2022-10-19T03:41:14.072Z,4.69
2022-10-19T03:43:42.312Z,4.64
2022-10-19T03:46:10.184Z,4.63
2022-10-19T03:48:37.929Z,4.64
2022-10-19T03:51:08.141Z,4.70
2022-10-19T03:53:37.318Z,4.56
2022-10-19T03:56:06.636Z,4.48
2022-10-19T03:58:35.993Z,4.41
2022-10-19T04:01:07.256Z,4.49
2022-10-19T04:06:04.822Z,4.52
2022-10-19T04:08:32.917Z,4.44
2022-10-19T04:11:04.044Z,4.40
2022-10-19T04:13:32.679Z,4.23
2022-10-19T04:16:00.492Z,4.14
2022-10-19T04:18:28.589Z,4.10
2022-10-19T04:21:00.322Z,4.13
2022-10-19T04:23:29.324Z,4.10
2022-10-19T04:26:02.845Z,4.13
2022-10-19T04:28:31.017Z,4.17
2022-10-19T04:30:58.877Z,4.21
2022-10-19T04:33:26.554Z,4.28
2022-10-19T04:35:59.307Z,4.29
2022-10-19T04:38:27.233Z,4.21
2022-10-19T04:40:56.008Z,4.14
2022-10-19T04:43:25.328Z,4.05
2022-10-19T04:45:53.066Z,3.99
2022-10-19T04:48:21.079Z,4.02
2022-10-19T04:50:50.077Z,4.02
2022-10-19T04:55:57.007Z,4.01
2022-10-19T04:58:26.154Z,4.03
2022-10-19T05:00:53.902Z,4.04
2022-10-19T05:03:21.696Z,4.05
2022-10-19T05:05:49.512Z,4.01
2022-10-19T05:08:18.169Z,3.97
2022-10-19T05:10:47.714Z,3.95
2022-10-19T05:13:15.809Z,3.90
2022-10-19T05:15:44.861Z,3.83
2022-10-19T05:18:13.127Z,3.71
2022-10-19T05:20:41.868Z,3.71
2022-10-19T05:23:10.432Z,3.73
2022-10-19T05:25:38.135Z,3.69
2022-10-19T05:28:05.864Z,3.70
2022-10-19T05:30:34.647Z,3.69
2022-10-19T05:33:03.791Z,3.68
2022-10-19T05:35:32.572Z,3.54
2022-10-19T05:38:00.313Z,3.54
2022-10-19T05:40:28.622Z,3.54
2022-10-19T05:42:56.345Z,3.56
2022-10-19T05:45:24.532Z,3.64
2022-10-19T05:47:52.313Z,3.71
2022-10-19T05:50:21.416Z,3.75
2022-10-19T05:52:49.120Z,3.73
2022-10-19T05:55:16.869Z,3.74
2022-10-19T05:57:44.601Z,3.61
2022-10-19T06:00:16.350Z,3.53
2022-10-19T06:02:44.062Z,3.39
2022-10-19T06:05:11.805Z,3.28
2022-10-19T06:07:41.113Z,3.26
2022-10-19T06:10:10.217Z,3.21
2022-10-19T06:12:38.610Z,3.17
2022-10-19T06:15:06.989Z,3.25
2022-10-19T06:17:34.970Z,3.31
2022-10-19T06:20:02.874Z,3.41
2022-10-19T06:22:31.927Z,3.42
2022-10-19T06:25:01.028Z,3.49
2022-10-19T06:27:29.136Z,3.61
2022-10-19T06:29:57.050Z,3.71
2022-10-19T06:32:25.283Z,3.79
2022-10-19T06:34:56.379Z,3.79
2022-10-19T06:37:24.587Z,3.77
2022-10-19T06:39:52.336Z,3.77
2022-10-19T06:42:21.457Z,3.85
2022-10-19T06:44:49.185Z,3.93
2022-10-19T06:47:16.971Z,4.03
2022-10-19T06:49:44.836Z,4.07
2022-10-19T06:52:12.625Z,4.15
2022-10-19T06:54:43.388Z,4.28
2022-10-19T06:57:11.115Z,4.42
2022-10-19T06:59:40.214Z,4.58
2022-10-19T07:02:07.997Z,4.73
2022-10-19T07:04:35.800Z,4.90
2022-10-19T07:07:08.625Z,5.08
2022-10-19T07:09:36.608Z,5.31
2022-10-19T07:12:04.788Z,5.52
2022-10-19T07:14:38.514Z,5.62
2022-10-19T07:17:09.287Z,5.85
2022-10-19T07:19:37.073Z,5.98
2022-10-19T07:22:04.941Z,6.06
2022-10-19T07:24:32.672Z,6.24
2022-10-19T07:27:00.469Z,6.57
2022-10-19T07:29:28.211Z,9.13
2022-10-19T07:31:56.337Z,12.75
2022-10-19T07:34:28.237Z,15.12
2022-10-19T07:36:57.945Z,16.13
2022-10-19T07:39:27.313Z,16.62
2022-10-19T07:41:55.098Z,17.00
2022-10-19T07:44:22.802Z,16.93
2022-10-19T07:46:51.774Z,16.41
2022-10-19T07:49:23.491Z,16.49
2022-10-19T07:51:54.043Z,17.37
2022-10-19T07:54:23.680Z,18.24
2022-10-19T07:56:51.406Z,18.80
2022-10-19T07:59:20.785Z,19.47
2022-10-19T08:01:48.959Z,19.64
2022-10-19T08:07:06.853Z,19.23
2022-10-19T08:09:52.205Z,19.13
2022-10-19T08:12:21.123Z,19.33
2022-10-19T08:14:48.969Z,19.55
2022-10-19T08:17:17.698Z,19.56
2022-10-19T08:19:45.908Z,19.60
2022-10-19T08:22:14.980Z,19.34
2022-10-19T08:24:42.762Z,19.98
2022-10-19T08:27:10.513Z,20.28
2022-10-19T08:29:38.233Z,20.51
2022-10-19T08:32:06.856Z,20.56
2022-10-19T08:34:34.625Z,19.96
2022-10-19T08:37:10.185Z,19.96
2022-10-19T08:39:49.195Z,19.66
2022-10-19T08:42:21.071Z,19.23
2022-10-19T08:45:11.986Z,18.85
2022-10-19T08:47:58.946Z,18.80
2022-10-19T08:50:30.314Z,18.98
2022-10-19T08:53:03.262Z,18.94
2022-10-19T08:55:43.545Z,18.97
2022-10-19T08:58:28.584Z,18.77
2022-10-19T09:01:06.266Z,18.75
2022-10-19T09:03:54.954Z,18.93
2022-10-19T09:06:28.222Z,19.07
2022-10-19T09:08:58.063Z,19.00
2022-10-19T09:11:31.015Z,19.32
2022-10-19T09:14:06.597Z,19.57
2022-10-19T09:16:35.059Z,19.69
2022-10-19T09:30:24.509Z,20.23
2022-10-19T09:32:59.726Z,20.12
2022-10-19T09:35:31.460Z,19.92
2022-10-19T09:37:59.388Z,19.89
2022-10-19T09:40:29.513Z,19.99
2022-10-19T09:43:02.814Z,20.28
2022-10-19T09:45:36.750Z,20.34
2022-10-19T09:48:15.076Z,20.64
2022-10-19T09:50:45.478Z,20.81
2022-10-19T09:53:20.737Z,20.80
2022-10-19T09:55:52.439Z,20.82
2022-10-19T09:58:21.748Z,20.89
2022-10-19T10:00:51.713Z,20.82
2022-10-19T10:03:29.510Z,20.36
2022-10-19T10:05:59.868Z,19.95
2022-10-19T10:08:31.231Z,19.84
2022-10-19T10:11:07.974Z,20.08
2022-10-19T10:13:42.744Z,19.91
2022-10-19T10:16:14.598Z,19.75
2022-10-19T10:18:54.127Z,19.61
2022-10-19T10:21:25.722Z,20.01
2022-10-19T10:24:03.160Z,19.96
2022-10-19T10:26:30.962Z,19.79
2022-10-19T10:29:01.487Z,19.74
2022-10-19T10:31:31.219Z,19.64
2022-10-19T10:34:11.006Z,19.73
2022-10-19T10:36:54.744Z,19.83
2022-10-19T10:39:24.753Z,19.42
2022-10-19T10:41:52.720Z,19.23
2022-10-19T10:44:24.282Z,19.48
2022-10-19T10:46:56.440Z,19.56
2022-10-19T10:49:27.421Z,19.54
2022-10-19T10:51:58.021Z,19.89
2022-10-19T10:54:27.588Z,20.17
2022-10-19T10:57:12.773Z,20.19
2022-10-19T10:59:50.277Z,20.01
2022-10-19T11:02:36.682Z,19.76
2022-10-19T11:05:11.771Z,19.92
2022-10-19T11:07:45.449Z,20.13
2022-10-19T11:10:22.244Z,20.10
2022-10-19T11:12:52.602Z,20.09
2022-10-19T11:15:26.526Z,20.23
2022-10-19T11:18:01.153Z,20.26
2022-10-19T11:20:32.829Z,20.10
2022-10-19T11:23:13.042Z,20.26
2022-10-19T11:25:55.266Z,20.55
2022-10-19T11:28:37.924Z,20.76
2022-10-19T11:31:16.377Z,21.14
2022-10-19T11:34:00.674Z,21.13
2022-10-19T11:36:39.548Z,21.01
2022-10-19T11:39:33.181Z,21.44
2022-10-19T11:42:10.166Z,21.77
2022-10-19T11:44:51.504Z,21.59
2022-10-19T11:47:33.693Z,21.71
2022-10-19T11:50:14.376Z,21.28
2022-10-19T11:52:48.246Z,21.11
2022-10-19T11:55:29.433Z,21.07
2022-10-19T11:58:06.506Z,21.20
2022-10-19T12:00:45.535Z,21.43
2022-10-19T12:03:43.518Z,21.40
2022-10-19T12:06:18.598Z,21.04
2022-10-19T12:09:10.299Z,21.35
2022-10-19T12:11:50.886Z,21.62
2022-10-19T12:14:23.177Z,21.48
2022-10-19T12:16:54.841Z,21.26
2022-10-19T12:19:26.016Z,21.48
2022-10-19T12:21:56.346Z,21.61
2022-10-19T12:24:26.258Z,21.28
2022-10-19T12:26:55.781Z,21.30
2022-10-19T12:29:26.604Z,20.98
2022-10-19T12:31:56.477Z,20.92
2022-10-19T12:34:37.897Z,21.18
2022-10-19T12:37:12.325Z,21.24
2022-10-19T12:39:46.963Z,21.01
2022-10-19T12:42:23.489Z,21.02
2022-10-19T12:45:19.766Z,21.24
2022-10-19T12:48:20.008Z,21.27
2022-10-19T12:51:15.141Z,21.25
2022-10-19T12:53:47.005Z,21.44
2022-10-19T12:56:20.558Z,21.57
2022-10-19T12:58:53.934Z,21.75
2022-10-19T13:01:25.356Z,22.02
2022-10-19T13:04:06.493Z,21.92
2022-10-19T13:06:37.978Z,22.10
2022-10-19T13:09:07.993Z,22.13
2022-10-19T13:11:38.303Z,22.41
2022-10-19T13:14:13.849Z,22.71
2022-10-19T13:17:02.970Z,22.63
2022-10-19T13:19:31.026Z,22.62
2022-10-19T13:22:22.487Z,22.48
2022-10-19T13:25:26.746Z,22.34
2022-10-19T13:27:56.578Z,22.63
2022-10-19T13:31:04.973Z,22.68
2022-10-19T13:33:48.078Z,22.41
2022-10-19T13:36:16.323Z,22.44
2022-10-19T13:38:45.974Z,22.43
2022-10-19T13:41:21.571Z,22.58
2022-10-19T13:44:18.325Z,22.73
2022-10-19T13:46:55.866Z,22.82
2022-10-19T13:49:51.913Z,22.93
2022-10-19T13:52:45.404Z,22.73
2022-10-19T13:55:28.567Z,22.74
2022-10-19T13:58:26.068Z,22.58
2022-10-19T14:01:12.041Z,22.46
2022-10-19T14:03:54.829Z,22.60
2022-10-19T14:06:29.002Z,22.52
2022-10-19T14:09:22.507Z,22.10
2022-10-19T14:11:53.620Z,22.20
2022-10-19T14:14:24.380Z,22.16
2022-10-19T14:16:59.622Z,22.24
2022-10-19T14:19:32.625Z,22.17
2022-10-19T14:22:02.425Z,22.14
2022-10-19T14:24:34.054Z,21.89
2022-10-19T14:27:04.347Z,21.76
2022-10-19T14:29:43.819Z,21.75
2022-10-19T14:32:12.524Z,21.48
2022-10-19T14:34:42.061Z,21.67
2022-10-19T14:37:17.568Z,21.86
2022-10-19T14:39:59.003Z,21.90
2022-10-19T14:42:37.632Z,22.02
2022-10-19T14:45:11.288Z,22.03
2022-10-19T14:47:52.343Z,21.63
2022-10-19T14:50:22.440Z,21.27
2022-10-19T14:52:54.940Z,21.13
2022-10-19T14:55:23.378Z,20.86
2022-10-19T14:57:54.551Z,20.35
2022-10-19T15:03:02.322Z,20.14
2022-10-19T15:05:34.142Z,20.03
2022-10-19T15:08:09.166Z,20.05
2022-10-19T15:10:43.249Z,19.92
2022-10-19T15:13:27.931Z,19.67
2022-10-19T15:15:57.096Z,19.69
2022-10-19T15:18:47.697Z,19.51
2022-10-19T15:21:15.485Z,19.27
2022-10-19T15:23:45.203Z,19.14
2022-10-19T15:26:20.299Z,19.09
2022-10-19T15:28:49.462Z,19.12
2022-10-19T15:31:21.601Z,18.81
2022-10-19T15:33:52.046Z,18.69
2022-10-19T15:36:21.700Z,18.46
2022-10-19T15:38:51.186Z,18.17
2022-10-19T15:41:21.887Z,17.92
2022-10-19T15:43:52.142Z,17.63
2022-10-19T15:46:32.994Z,17.27
2022-10-19T15:49:04.422Z,17.19
2022-10-19T15:51:44.002Z,16.79
2022-10-19T15:54:15.762Z,16.63
2022-10-19T15:56:44.857Z,16.44
2022-10-19T15:59:15.531Z,16.22
2022-10-19T16:01:45.239Z,16.16
2022-10-19T16:04:13.018Z,16.04
2022-10-19T16:06:42.524Z,15.90
2022-10-19T16:09:17.265Z,15.78
2022-10-19T16:11:45.316Z,15.79
2022-10-19T16:14:13.190Z,15.65
2022-10-19T16:16:41.907Z,15.59
2022-10-19T16:19:14.249Z,15.30
2022-10-19T16:21:43.207Z,15.06
2022-10-19T16:24:13.409Z,15.15
2022-10-19T16:26:41.143Z,15.15
2022-10-19T16:29:08.858Z,15.22
2022-10-19T16:31:38.252Z,15.08
2022-10-19T16:34:05.979Z,14.87
2022-10-19T16:36:35.046Z,14.76
2022-10-19T16:39:04.369Z,14.63
2022-10-19T16:41:32.921Z,14.38
2022-10-19T16:44:00.694Z,14.21
2022-10-19T16:46:28.460Z,14.16
2022-10-19T16:48:56.608Z,14.07
2022-10-19T16:51:27.783Z,14.01
2022-10-19T16:53:58.972Z,14.09
2022-10-19T16:56:29.756Z,14.00
2022-10-19T16:58:59.742Z,13.89
2022-10-19T17:01:28.874Z,13.76
2022-10-19T17:03:56.980Z,13.59
2022-10-19T17:06:25.222Z,13.58
2022-10-19T17:09:29.734Z,13.54
2022-10-19T17:11:42.773Z,13.41
2022-10-19T17:14:13.596Z,13.42
2022-10-19T17:16:41.655Z,13.43
2022-10-19T17:19:11.237Z,13.37
2022-10-19T17:21:39.921Z,13.38
2022-10-19T17:24:16.952Z,13.34
2022-10-19T17:26:50.925Z,13.27
2022-10-19T17:29:19.601Z,13.10
2022-10-19T17:31:49.261Z,13.02
2022-10-19T17:34:17.909Z,12.92
2022-10-19T17:36:47.546Z,12.94
2022-10-19T17:39:17.872Z,12.85
2022-10-19T17:41:45.899Z,12.83
2022-10-19T17:44:15.562Z,12.80
2022-10-19T17:46:43.650Z,12.81
2022-10-19T17:49:11.458Z,12.68
2022-10-19T17:51:39.849Z,12.67
2022-10-19T17:54:09.832Z,12.50
2022-10-19T17:56:39.248Z,12.39
2022-10-19T17:59:09.110Z,12.37
2022-10-19T18:01:38.769Z,12.27
2022-10-19T18:04:07.230Z,12.12
2022-10-19T18:06:37.844Z,12.10
2022-10-19T18:09:08.499Z,12.07
2022-10-19T18:11:38.629Z,11.94
2022-10-19T18:14:08.890Z,11.90
2022-10-19T18:16:39.666Z,11.79
2022-10-19T18:19:08.623Z,11.79
2022-10-19T18:21:38.881Z,11.77
2022-10-19T18:24:11.275Z,11.76
2022-10-19T18:26:42.190Z,11.74
2022-10-19T18:29:12.599Z,11.69
2022-10-19T18:31:42.405Z,11.66
2022-10-19T18:34:14.426Z,11.60
2022-10-19T18:36:42.395Z,11.68
2022-10-19T18:39:12.004Z,11.65
2022-10-19T18:41:40.546Z,11.51
2022-10-19T18:44:09.535Z,11.44
2022-10-19T18:46:38.814Z,11.34
2022-10-19T18:49:09.260Z,11.29
2022-10-19T18:51:37.180Z,11.18
2022-10-19T18:54:05.731Z,11.13
2022-10-19T18:56:36.393Z,11.10
2022-10-19T18:59:05.243Z,11.04
2022-10-19T19:01:33.137Z,10.99
2022-10-19T19:04:09.154Z,10.87
2022-10-19T19:06:38.062Z,10.85
2022-10-19T19:09:09.409Z,10.84
2022-10-19T19:11:40.687Z,10.74
2022-10-19T19:14:12.446Z,10.74
2022-10-19T19:16:41.096Z,10.67
2022-10-19T19:19:12.345Z,10.63
2022-10-19T19:21:41.753Z,10.61
2022-10-19T19:24:09.511Z,10.61
2022-10-19T19:26:41.098Z,10.55
2022-10-19T19:29:08.993Z,10.49
2022-10-19T19:31:37.033Z,10.49
2022-10-19T19:34:09.203Z,10.42
2022-10-19T19:36:42.848Z,10.34
2022-10-19T19:39:10.633Z,10.38
2022-10-19T19:41:38.356Z,10.31
2022-10-19T19:44:06.192Z,10.27
2022-10-19T19:46:33.954Z,10.15
2022-10-19T19:49:03.466Z,10.06
2022-10-19T19:51:33.248Z,10.00
2022-10-19T19:54:02.337Z,9.93
2022-10-19T19:56:30.113Z,9.88
2022-10-19T19:58:59.760Z,9.81
2022-10-19T20:01:28.086Z,9.78
2022-10-19T20:03:58.538Z,9.82
2022-10-19T20:06:26.474Z,9.83
2022-10-19T20:08:54.865Z,9.83
2022-10-19T20:11:25.749Z,9.77
2022-10-19T20:13:53.868Z,9.72
2022-10-19T20:16:28.189Z,9.72
2022-10-19T20:19:00.944Z,9.69
2022-10-19T20:21:28.830Z,9.67
2022-10-19T20:23:56.560Z,9.66
2022-10-19T20:26:26.053Z,9.60
2022-10-19T20:28:54.457Z,9.56
2022-10-19T20:31:23.096Z,9.46
2022-10-19T20:33:51.285Z,9.46
2022-10-19T20:36:21.265Z,9.51
2022-10-19T20:38:51.529Z,9.46
2022-10-19T20:41:20.585Z,9.39
2022-10-19T20:43:50.156Z,9.33
2022-10-19T20:46:21.046Z,9.34
2022-10-19T20:48:49.686Z,9.31
2022-10-19T20:51:19.452Z,9.28
2022-10-19T20:53:48.732Z,9.26
2022-10-19T20:56:18.873Z,9.24
2022-10-19T20:58:47.133Z,9.22
2022-10-19T21:01:18.621Z,9.18
2022-10-19T21:03:47.660Z,9.18
2022-10-19T21:06:15.603Z,9.14
2022-10-19T21:08:43.623Z,9.14
2022-10-19T21:11:16.195Z,9.14
2022-10-19T21:13:44.592Z,9.15
2022-10-19T21:16:14.981Z,9.16
2022-10-19T21:18:44.972Z,9.08
2022-10-19T21:21:17.406Z,9.06
2022-10-19T21:23:45.961Z,9.04
2022-10-19T21:26:14.496Z,8.97
2022-10-19T21:28:47.556Z,8.95
2022-10-19T21:31:15.710Z,8.95
2022-10-19T21:33:45.492Z,8.93
2022-10-19T21:36:14.768Z,8.96
2022-10-19T21:38:43.001Z,9.00
2022-10-19T21:41:13.295Z,8.95
2022-10-19T21:43:41.084Z,8.93
2022-10-19T21:46:12.024Z,8.91
2022-10-19T21:48:40.363Z,8.93
2022-10-19T21:51:22.637Z,8.89
2022-10-19T21:53:50.714Z,8.86
2022-10-19T21:56:18.626Z,8.86
2022-10-19T21:58:47.060Z,8.81
2022-10-19T22:01:15.524Z,8.77
2022-10-19T22:03:43.682Z,8.78
2022-10-19T22:06:12.349Z,8.77
2022-10-19T22:08:45.214Z,8.75
2022-10-19T22:11:14.368Z,8.69
2022-10-19T22:13:42.483Z,8.69
2022-10-19T22:16:12.425Z,8.62
2022-10-19T22:18:40.518Z,8.60
2022-10-19T22:21:10.396Z,8.58
2022-10-19T22:23:38.418Z,8.54
2022-10-19T22:26:14.993Z,8.50
2022-10-19T22:28:43.578Z,8.49
2022-10-19T22:31:12.412Z,8.44
2022-10-19T22:33:40.801Z,8.42
2022-10-19T22:36:09.923Z,8.39
2022-10-19T22:38:38.185Z,8.42
2022-10-19T22:42:00.927Z,8.43
2022-10-19T22:44:48.606Z,8.37
2022-10-19T22:47:16.480Z,8.33
2022-10-19T22:49:44.219Z,8.32
2022-10-19T22:52:12.015Z,8.34
2022-10-19T22:54:39.830Z,8.33
2022-10-19T22:57:07.586Z,8.31
2022-10-19T22:59:35.621Z,8.28
2022-10-19T23:02:05.183Z,8.28
2022-10-19T23:04:33.140Z,8.33
2022-10-19T23:07:00.929Z,8.33
2022-10-19T23:09:28.813Z,8.31
2022-10-19T23:11:56.618Z,8.28
2022-10-19T23:14:24.525Z,8.28
2022-10-19T23:16:52.244Z,8.28
2022-10-19T23:19:21.517Z,8.30
2022-10-19T23:21:49.217Z,8.29
2022-10-19T23:24:16.966Z,8.23
2022-10-19T23:26:44.690Z,8.24
2022-10-19T23:29:12.465Z,8.22
2022-10-19T23:31:40.197Z,8.18
2022-10-19T23:34:07.934Z,8.15
2022-10-19T23:36:37.060Z,8.13
2022-10-19T23:39:04.885Z,8.11
2022-10-19T23:41:32.824Z,8.11
2022-10-19T23:44:00.536Z,8.07
2022-10-19T23:46:28.301Z,8.06
2022-10-19T23:48:56.013Z,8.06
2022-10-19T23:51:24.275Z,8.02
2022-10-19T23:53:53.720Z,8.00
2022-10-19T23:56:23.347Z,7.99
2022-10-19T23:58:51.881Z,8.00
